createdAt,value
2018-12-06T00:01:38.949Z,98027.02
2018-12-06T00:04:09.404Z,98035.98
2018-12-06T00:06:39.896Z,98041.42
2018-12-06T00:09:10.364Z,98049.97
2018-12-06T00:11:40.917Z,98040.61
2018-12-06T00:14:12.424Z,98030.48
2018-12-06T00:16:43.008Z,98032.98
2018-12-06T00:19:13.395Z,98030.38
2018-12-06T00:21:43.828Z,98027.52
2018-12-06T00:24:14.273Z,98023.70
2018-12-06T00:26:44.725Z,98023.70
2018-12-06T00:29:15.205Z,98021.63
2018-12-06T00:31:45.792Z,98016.97
2018-12-06T00:34:16.318Z,98018.28
2018-12-06T00:36:46.867Z,98005.53
2018-12-06T00:39:17.336Z,98021.74
2018-12-06T00:41:47.826Z,98018.81
2018-12-06T00:44:18.362Z,98003.95
2018-12-06T00:46:48.808Z,98014.12
2018-12-06T00:49:19.217Z,98009.46
2018-12-06T00:51:49.716Z,98015.89
2018-12-06T00:54:20.170Z,98018.50
2018-12-06T00:56:50.616Z,98008.38
2018-12-06T00:59:21.078Z,98015.11
2018-12-06T01:01:53.354Z,98013.92
2018-12-06T01:04:23.903Z,98013.92
2018-12-06T01:06:54.396Z,98024.92
2018-12-06T01:09:25.035Z,98028.34
2018-12-06T01:11:55.765Z,98028.70
2018-12-06T01:14:30.199Z,98033.39
2018-12-06T01:17:00.709Z,98026.58
2018-12-06T01:19:31.189Z,98031.62
2018-12-06T01:22:01.689Z,98020.59
2018-12-06T01:24:32.226Z,98016.73
2018-12-06T01:27:02.655Z,98020.09
2018-12-06T01:29:33.165Z,98009.64
2018-12-06T01:32:03.694Z,98009.69
2018-12-06T01:34:34.116Z,98007.60
2018-12-06T01:37:04.605Z,98000.41
2018-12-06T01:39:35.021Z,98008.95
2018-12-06T01:42:05.576Z,98001.75
2018-12-06T01:44:36.040Z,97997.87
2018-12-06T01:47:06.667Z,97996.31
2018-12-06T01:49:37.248Z,98003.05
2018-12-06T01:52:07.834Z,97995.89
2018-12-06T01:54:38.371Z,97996.73
2018-12-06T01:57:08.813Z,97986.61
2018-12-06T01:59:39.270Z,98001.81
2018-12-06T02:02:09.734Z,98012.47
2018-12-06T02:04:41.285Z,98000.20
2018-12-06T02:07:11.783Z,98007.89
2018-12-06T02:09:42.270Z,98007.85
2018-12-06T02:12:13.003Z,98000.30
2018-12-06T02:14:43.495Z,98001.16
2018-12-06T02:17:14.504Z,97999.03
2018-12-06T02:19:44.973Z,97998.16
2018-12-06T02:22:15.430Z,98003.30
2018-12-06T02:24:45.871Z,97993.95
2018-12-06T02:27:16.553Z,98003.73
2018-12-06T02:29:51.872Z,97999.06
2018-12-06T02:32:22.408Z,98001.67
2018-12-06T02:34:52.884Z,98007.18
2018-12-06T02:37:23.542Z,98008.45
2018-12-06T02:39:53.990Z,98003.37
2018-12-06T02:42:24.484Z,98011.06
2018-12-06T02:44:54.904Z,98009.36
2018-12-06T02:47:25.385Z,98010.63
2018-12-06T02:49:55.894Z,97997.09
2018-12-06T02:52:26.623Z,98003.48
2018-12-06T02:54:57.084Z,98009.86
2018-12-06T02:57:27.703Z,98010.70
2018-12-06T02:59:58.200Z,98013.70
2018-12-06T03:02:28.705Z,98016.59
2018-12-06T03:04:59.190Z,98013.73
2018-12-06T03:07:29.649Z,98017.93
2018-12-06T03:10:00.459Z,98022.94
2018-12-06T03:12:31.242Z,98022.59
2018-12-06T03:15:01.696Z,98031.89
2018-12-06T03:17:34.222Z,98021.44
2018-12-06T03:20:05.473Z,98027.01
2018-12-06T03:22:36.256Z,98033.78
2018-12-06T03:25:06.968Z,98032.99
2018-12-06T03:27:37.470Z,98049.46
2018-12-06T03:30:07.980Z,98044.81
2018-12-06T03:32:38.385Z,98048.16
2018-12-06T03:35:08.887Z,98045.30
2018-12-06T03:37:39.372Z,98046.56
2018-12-06T03:40:09.987Z,98046.20
2018-12-06T03:42:40.513Z,98033.12
2018-12-06T03:45:10.964Z,98056.75
2018-12-06T03:47:42.223Z,98053.88
2018-12-06T03:50:12.634Z,98059.31
2018-12-06T03:52:43.181Z,98055.91
2018-12-06T03:55:13.631Z,98057.14
2018-12-06T03:57:44.085Z,98055.90
2018-12-06T04:00:14.562Z,98064.78
2018-12-06T04:02:45.032Z,98066.95
2018-12-06T04:05:15.551Z,98063.55
2018-12-06T04:07:46.096Z,98069.11
2018-12-06T04:10:16.568Z,98068.67
2018-12-06T04:12:47.424Z,98067.38
2018-12-06T04:15:18.964Z,98066.14
2018-12-06T04:17:49.415Z,98068.26
2018-12-06T04:20:19.892Z,98064.53
2018-12-06T04:22:50.376Z,98075.14
2018-12-06T04:25:20.853Z,98078.04
2018-12-06T04:27:51.429Z,98079.31
2018-12-06T04:30:21.856Z,98077.22
2018-12-06T04:32:52.352Z,98074.31
2018-12-06T04:35:22.935Z,98079.84
2018-12-06T04:37:53.417Z,98090.42
2018-12-06T04:40:23.915Z,98102.76
2018-12-06T04:42:54.377Z,98096.86
2018-12-06T04:45:24.884Z,98097.71
2018-12-06T04:47:55.344Z,98101.55
2018-12-06T04:50:25.751Z,98100.33
2018-12-06T04:52:56.237Z,98104.13
2018-12-06T04:55:26.888Z,98103.23
2018-12-06T04:57:57.364Z,98113.38
2018-12-06T05:00:27.910Z,98110.02
2018-12-06T05:02:58.409Z,98113.91
2018-12-06T05:05:28.892Z,98111.42
2018-12-06T05:07:59.391Z,98108.78
2018-12-06T05:10:29.877Z,98105.45
2018-12-06T05:13:00.488Z,98105.92
2018-12-06T05:15:30.901Z,98111.87
2018-12-06T05:18:01.408Z,98115.27
2018-12-06T05:20:31.790Z,98116.56
2018-12-06T05:23:02.167Z,98108.48
2018-12-06T05:25:32.648Z,98111.47
2018-12-06T05:28:03.164Z,98109.82
2018-12-06T05:30:33.690Z,98109.82
2018-12-06T05:33:04.437Z,98107.73
2018-12-06T05:35:34.913Z,98106.07
2018-12-06T05:38:05.527Z,98103.53
2018-12-06T05:40:35.897Z,98111.53
2018-12-06T05:43:06.376Z,98106.51
2018-12-06T05:45:36.851Z,98106.19
2018-12-06T05:48:07.446Z,98108.67
2018-12-06T05:50:37.952Z,98112.08
2018-12-06T05:53:08.711Z,98119.64
2018-12-06T05:55:39.188Z,98116.66
2018-12-06T05:58:11.782Z,98112.41
2018-12-06T06:00:42.398Z,98111.97
2018-12-06T06:03:12.936Z,98113.61
2018-12-06T06:05:43.427Z,98119.95
2018-12-06T06:08:13.956Z,98123.67
2018-12-06T06:10:44.551Z,98132.03
2018-12-06T06:13:15.339Z,98128.19
2018-12-06T06:15:45.884Z,98126.91
2018-12-06T06:18:16.490Z,98124.30
2018-12-06T06:20:47.026Z,98131.91
2018-12-06T06:23:17.481Z,98132.67
2018-12-06T06:25:48.005Z,98134.69
2018-12-06T06:28:18.478Z,98148.09
2018-12-06T06:30:49.011Z,98146.69
2018-12-06T06:33:20.765Z,98141.95
2018-12-06T06:35:51.244Z,98136.33
2018-12-06T06:38:21.794Z,98150.66
2018-12-06T06:40:52.316Z,98146.34
2018-12-06T06:43:22.855Z,98147.97
2018-12-06T06:45:53.360Z,98150.36
2018-12-06T06:48:23.911Z,98146.81
2018-12-06T06:50:54.388Z,98150.23
2018-12-06T06:53:25.044Z,98152.16
2018-12-06T06:55:55.568Z,98156.26
2018-12-06T06:58:26.145Z,98153.33
2018-12-06T07:00:56.657Z,98156.62
2018-12-06T07:03:27.132Z,98156.55
2018-12-06T07:05:57.743Z,98164.11
2018-12-06T07:08:28.285Z,98166.44
2018-12-06T07:10:58.807Z,98161.39
2018-12-06T07:13:29.521Z,98164.32
2018-12-06T07:15:59.983Z,98169.41
2018-12-06T07:22:14.907Z,98164.70
2018-12-06T07:24:45.424Z,98167.92
2018-12-06T07:27:15.915Z,98162.88
2018-12-06T07:29:46.397Z,98166.69
2018-12-06T07:32:16.910Z,98161.95
2018-12-06T07:34:47.412Z,98159.33
2018-12-06T07:37:17.899Z,98171.52
2018-12-06T07:39:48.500Z,98176.49
2018-12-06T07:42:19.101Z,98164.20
2018-12-06T07:47:33.308Z,98178.73
2018-12-06T07:50:03.802Z,98151.74
2018-12-06T07:52:34.325Z,98164.92
2018-12-06T07:55:04.914Z,98168.70
2018-12-06T07:57:35.397Z,98171.16
2018-12-06T08:00:07.195Z,98167.09
2018-12-06T08:02:37.705Z,98167.34
2018-12-06T08:07:52.326Z,98156.43
2018-12-06T08:10:23.000Z,98165.94
2018-12-06T08:12:53.502Z,98175.94
2018-12-06T08:15:24.047Z,98169.81
2018-12-06T08:17:54.583Z,98174.67
2018-12-06T08:20:25.098Z,98174.29
2018-12-06T08:22:55.543Z,98173.16
2018-12-06T08:25:27.160Z,98180.50
2018-12-06T08:30:39.007Z,98169.47
2018-12-06T08:33:09.557Z,98165.90
2018-12-06T08:35:40.048Z,98172.14
2018-12-06T08:40:53.217Z,98157.66
2018-12-06T08:43:23.712Z,98156.20
2018-12-06T08:45:54.154Z,98162.44
2018-12-06T08:48:24.656Z,98157.45
2018-12-06T08:50:55.118Z,98116.95
2018-12-06T08:53:25.672Z,98162.16
2018-12-06T08:55:56.220Z,98153.30
2018-12-06T08:58:27.744Z,98154.34
2018-12-06T09:00:59.436Z,98149.22
2018-12-06T09:03:29.871Z,98151.41
2018-12-06T09:06:00.425Z,98150.23
2018-12-06T09:08:30.927Z,98157.06
2018-12-06T09:11:01.472Z,98152.88
2018-12-06T09:13:32.040Z,98150.30
2018-12-06T09:16:02.518Z,98148.69
2018-12-06T09:18:33.998Z,98156.40
2018-12-06T09:21:04.524Z,98146.58
2018-12-06T09:23:35.005Z,98155.09
2018-12-06T09:26:05.619Z,98147.84
2018-12-06T09:28:36.128Z,98151.52
2018-12-06T09:31:06.786Z,98148.86
2018-12-06T09:33:46.656Z,98150.24
2018-12-06T09:36:17.225Z,98151.82
2018-12-06T09:38:47.797Z,98154.43
2018-12-06T09:41:18.491Z,98150.67
2018-12-06T09:43:49.001Z,98158.16
2018-12-06T09:46:19.528Z,98145.83
2018-12-06T09:48:50.203Z,98144.02
2018-12-06T09:51:20.759Z,98149.77
2018-12-06T09:53:51.240Z,98141.84
2018-12-06T09:56:21.762Z,98131.97
2018-12-06T09:58:52.367Z,98140.98
2018-12-06T10:01:22.867Z,98140.01
2018-12-06T10:03:53.362Z,98129.38
2018-12-06T10:06:24.421Z,98132.57
2018-12-06T10:08:54.926Z,98130.27
2018-12-06T10:11:25.439Z,98126.73
2018-12-06T10:13:55.994Z,98121.85
2018-12-06T10:16:26.501Z,98121.21
2018-12-06T10:18:57.180Z,98123.86
2018-12-06T10:21:27.701Z,98106.94
2018-12-06T10:23:58.189Z,98116.59
2018-12-06T10:26:28.831Z,98114.32
2018-12-06T10:28:59.361Z,98109.52
2018-12-06T10:31:30.033Z,98113.67
2018-12-06T10:34:00.523Z,98122.61
2018-12-06T10:36:31.064Z,98117.23
2018-12-06T10:39:01.714Z,98104.08
2018-12-06T10:41:33.437Z,98104.05
2018-12-06T10:44:03.936Z,98106.48
2018-12-06T10:46:34.457Z,98108.83
2018-12-06T10:49:04.934Z,98103.61
2018-12-06T10:51:50.710Z,98096.89
2018-12-06T10:54:21.236Z,98097.61
2018-12-06T10:56:51.698Z,98098.84
2018-12-06T10:59:22.215Z,98103.48
2018-12-06T11:01:57.596Z,98096.95
2018-12-06T11:04:42.273Z,98092.95
2018-12-06T11:07:12.836Z,98094.13
2018-12-06T11:09:43.269Z,98089.61
2018-12-06T11:12:13.684Z,98092.08
2018-12-06T11:14:44.204Z,98093.44
2018-12-06T11:17:14.707Z,98082.19
2018-12-06T11:19:45.505Z,98092.76
2018-12-06T11:22:15.961Z,98083.46
2018-12-06T11:24:46.477Z,98089.49
2018-12-06T11:27:16.968Z,98087.44
2018-12-06T11:29:47.576Z,98077.99
2018-12-06T11:32:18.077Z,98087.20
2018-12-06T11:34:48.559Z,98085.76
2018-12-06T11:37:18.983Z,98104.52
2018-12-06T11:39:49.704Z,98078.05
2018-12-06T11:42:20.188Z,98090.86
2018-12-06T11:44:50.698Z,98088.42
2018-12-06T11:47:21.251Z,98077.67
2018-12-06T11:49:51.757Z,98070.66
2018-12-06T11:52:22.192Z,98080.31
2018-12-06T11:54:52.659Z,98086.84
2018-12-06T11:57:23.077Z,98052.33
2018-12-06T11:59:53.594Z,98077.92
2018-12-06T12:02:24.085Z,98074.00
2018-12-06T12:04:54.557Z,98078.56
2018-12-06T12:07:25.045Z,98082.52
2018-12-06T12:09:55.564Z,98088.19
2018-12-06T12:12:26.113Z,98095.03
2018-12-06T12:14:58.744Z,98093.34
2018-12-06T12:17:29.303Z,98090.42
2018-12-06T12:19:59.950Z,98096.19
2018-12-06T12:22:30.526Z,98094.48
2018-12-06T12:25:00.969Z,98085.00
2018-12-06T12:27:31.644Z,98092.84
2018-12-06T12:30:02.155Z,98092.61
2018-12-06T12:32:32.632Z,98098.56
2018-12-06T12:35:03.106Z,98090.22
2018-12-06T12:37:33.653Z,98090.63
2018-12-06T12:40:04.199Z,98086.63
2018-12-06T12:42:35.087Z,98092.05
2018-12-06T12:45:05.795Z,98091.81
2018-12-06T12:47:36.230Z,98090.39
2018-12-06T12:50:09.725Z,98093.84
2018-12-06T12:52:40.538Z,98088.59
2018-12-06T12:55:10.932Z,98096.23
2018-12-06T12:57:41.510Z,98090.86
2018-12-06T13:00:12.039Z,98095.16
2018-12-06T13:02:42.440Z,98099.70
2018-12-06T13:05:12.946Z,98097.84
2018-12-06T13:07:43.383Z,98095.48
2018-12-06T13:10:13.850Z,98096.67
2018-12-06T13:12:44.246Z,98095.11
2018-12-06T13:15:14.784Z,98102.33
2018-12-06T13:17:45.308Z,98096.14
2018-12-06T13:20:16.037Z,98107.27
2018-12-06T13:22:46.551Z,98097.55
2018-12-06T13:25:17.031Z,98098.14
2018-12-06T13:27:47.589Z,98103.16
2018-12-06T13:30:18.064Z,98097.34
2018-12-06T13:32:48.622Z,98103.70
2018-12-06T13:35:19.104Z,98102.34
2018-12-06T13:37:49.552Z,98100.95
2018-12-06T13:40:20.300Z,98094.24
2018-12-06T13:42:50.837Z,98103.44
2018-12-06T13:45:21.258Z,98100.12
2018-12-06T13:47:51.823Z,98098.44
2018-12-06T13:50:22.403Z,98103.11
2018-12-06T13:52:52.947Z,98107.30
2018-12-06T13:55:23.435Z,98112.86
2018-12-06T13:57:53.889Z,98113.20
2018-12-06T14:00:24.713Z,98117.48
2018-12-06T14:02:56.668Z,98119.70
2018-12-06T14:05:27.078Z,98116.14
2018-12-06T14:07:57.616Z,98118.34
2018-12-06T14:10:28.071Z,98116.27
2018-12-06T14:12:58.592Z,98115.23
2018-12-06T14:15:29.070Z,98112.47
2018-12-06T14:17:59.516Z,98104.84
2018-12-06T14:20:30.278Z,98100.25
2018-12-06T14:23:00.773Z,98107.50
2018-12-06T14:25:31.175Z,98105.34
2018-12-06T14:28:01.809Z,98102.38
2018-12-06T14:30:32.511Z,98109.23
2018-12-06T14:33:03.074Z,98111.70
2018-12-06T14:35:33.533Z,98109.63
2018-12-06T14:38:04.085Z,98116.36
2018-12-06T14:40:34.738Z,98119.37
2018-12-06T14:43:05.390Z,98117.17
2018-12-06T14:45:36.159Z,98118.09
2018-12-06T14:48:07.693Z,98118.67
2018-12-06T14:50:38.176Z,98123.30
2018-12-06T14:53:08.730Z,98126.77
2018-12-06T14:55:39.158Z,98123.06
2018-12-06T14:58:10.699Z,98121.41
2018-12-06T15:00:41.422Z,98125.53
2018-12-06T15:03:11.926Z,98120.21
2018-12-06T15:05:42.393Z,98127.80
2018-12-06T15:08:12.972Z,98129.53
2018-12-06T15:10:43.430Z,98131.02
2018-12-06T15:13:13.890Z,98130.07
2018-12-06T15:15:44.427Z,98126.39
2018-12-06T15:18:14.927Z,98135.50
2018-12-06T15:20:45.627Z,98140.23
2018-12-06T15:23:16.170Z,98137.12
2018-12-06T15:25:46.762Z,98135.11
2018-12-06T15:28:17.826Z,98137.43
2018-12-06T15:30:48.395Z,98144.23
2018-12-06T15:33:19.069Z,98143.09
2018-12-06T15:35:49.563Z,98144.10
2018-12-06T15:38:20.107Z,98145.77
2018-12-06T15:40:50.947Z,98147.67
2018-12-06T15:43:21.453Z,98144.61
2018-12-06T15:45:52.057Z,98144.61
2018-12-06T15:48:22.951Z,98151.93
2018-12-06T15:50:53.512Z,98143.16
2018-12-06T15:53:24.076Z,98140.66
2018-12-06T15:55:54.694Z,98139.89
2018-12-06T15:58:25.720Z,98136.48
2018-12-06T16:00:56.684Z,98141.13
2018-12-06T16:03:27.184Z,98149.17
2018-12-06T16:05:57.729Z,98138.11
2018-12-06T16:08:28.410Z,98140.22
2018-12-06T16:10:58.935Z,98141.58
2018-12-06T16:13:29.536Z,98135.31
2018-12-06T16:16:00.177Z,98138.84
2018-12-06T16:18:30.629Z,98141.80
2018-12-06T16:21:01.441Z,98149.28
2018-12-06T16:23:31.999Z,98146.45
2018-12-06T16:26:02.497Z,98150.34
2018-12-06T16:28:33.099Z,98153.77
2018-12-06T16:31:03.589Z,98149.17
2018-12-06T16:33:34.166Z,98157.20
2018-12-06T16:36:04.575Z,98156.44
2018-12-06T16:38:35.156Z,98163.97
2018-12-06T16:41:05.921Z,98164.40
2018-12-06T16:43:36.418Z,98169.20
2018-12-06T16:46:06.921Z,98169.20
2018-12-06T16:48:38.887Z,98163.63
2018-12-06T16:51:09.374Z,98176.45
2018-12-06T16:53:39.933Z,98172.11
2018-12-06T16:56:10.486Z,98171.63
2018-12-06T16:58:40.985Z,98169.07
2018-12-06T17:01:11.653Z,98169.97
2018-12-06T17:03:42.153Z,98173.33
2018-12-06T17:06:12.641Z,98169.99
2018-12-06T17:08:44.022Z,98172.58
2018-12-06T17:11:14.495Z,98176.77
2018-12-06T17:13:45.007Z,98172.98
2018-12-06T17:16:15.432Z,98183.55
2018-12-06T17:18:45.979Z,98180.14
2018-12-06T17:21:16.794Z,98182.77
2018-12-06T17:23:47.294Z,98179.87
2018-12-06T17:26:17.865Z,98179.48
2018-12-06T17:28:48.426Z,98174.83
2018-12-06T17:31:18.981Z,98176.12
2018-12-06T17:33:49.467Z,98173.98
2018-12-06T17:36:20.007Z,98185.91
2018-12-06T17:38:50.534Z,98185.92
2018-12-06T17:41:21.335Z,98182.66
2018-12-06T17:43:51.772Z,98180.89
2018-12-06T17:46:22.262Z,98179.58
2018-12-06T17:48:52.728Z,98181.72
2018-12-06T17:51:23.290Z,98182.16
2018-12-06T17:53:54.263Z,98175.38
2018-12-06T17:56:24.982Z,98163.61
2018-12-06T17:58:55.465Z,98167.38
2018-12-06T18:01:26.216Z,98170.44
2018-12-06T18:03:56.800Z,98170.89
2018-12-06T18:06:27.303Z,98171.42
2018-12-06T18:08:57.954Z,98175.97
2018-12-06T18:11:28.528Z,98170.09
2018-12-06T18:13:59.053Z,98171.36
2018-12-06T18:16:29.526Z,98173.03
2018-12-06T18:19:00.143Z,98175.48
2018-12-06T18:21:31.034Z,98180.15
2018-12-06T18:24:01.542Z,98182.64
2018-12-06T18:26:33.510Z,98180.56
2018-12-06T18:29:04.581Z,98185.22
2018-12-06T18:31:35.144Z,98184.86
2018-12-06T18:34:05.557Z,98179.89
2018-12-06T18:36:36.273Z,98180.72
2018-12-06T18:39:08.980Z,98176.06
2018-12-06T18:41:39.840Z,98179.98
2018-12-06T18:44:10.228Z,98179.19
2018-12-06T18:46:40.736Z,98175.05
2018-12-06T18:49:11.256Z,98172.56
2018-12-06T18:51:41.758Z,98177.27
2018-12-06T18:54:12.294Z,98176.11
2018-12-06T18:56:42.801Z,98179.95
2018-12-06T18:59:13.343Z,98168.50
2018-12-06T19:01:43.999Z,98173.19
2018-12-06T19:04:14.524Z,98168.48
2018-12-06T19:06:45.826Z,98171.48
2018-12-06T19:09:16.398Z,98171.98
2018-12-06T19:11:46.900Z,98174.15
2018-12-06T19:14:21.741Z,98173.65
2018-12-06T19:16:49.901Z,98170.28
2018-12-06T19:19:20.434Z,98173.69
2018-12-06T19:21:51.029Z,98172.03
2018-12-06T19:24:21.596Z,98178.79
2018-12-06T19:26:52.045Z,98176.75
2018-12-06T19:29:22.609Z,98178.87
2018-12-06T19:31:54.095Z,98167.95
2018-12-06T19:34:24.542Z,98168.78
2018-12-06T19:36:55.153Z,98169.21
2018-12-06T19:39:25.688Z,98172.58
2018-12-06T19:41:56.433Z,98179.27
2018-12-06T19:44:26.915Z,98175.03
2018-12-06T19:46:57.440Z,98173.73
2018-12-06T19:49:27.965Z,98176.61
2018-12-06T19:51:58.442Z,98175.39
2018-12-06T19:54:28.911Z,98178.79
2018-12-06T19:56:59.453Z,98178.81
2018-12-06T19:59:29.886Z,98173.77
2018-12-06T20:02:00.645Z,98176.30
2018-12-06T20:04:31.233Z,98176.73
2018-12-06T20:07:01.737Z,98177.15
2018-12-06T20:09:32.173Z,98183.45
2018-12-06T20:12:02.686Z,98175.47
2018-12-06T20:14:33.151Z,98171.27
2018-12-06T20:17:03.649Z,98170.86
2018-12-06T20:19:35.453Z,98167.50
2018-12-06T20:22:06.141Z,98169.66
2018-12-06T20:24:36.676Z,98168.78
2018-12-06T20:27:07.114Z,98175.47
2018-12-06T20:29:37.623Z,98175.09
2018-12-06T20:32:14.477Z,98178.84
2018-12-06T20:34:40.594Z,98182.25
2018-12-06T20:37:11.102Z,98178.83
2018-12-06T20:39:41.869Z,98179.73
2018-12-06T20:42:12.425Z,98175.97
2018-12-06T20:44:43.013Z,98174.70
2018-12-06T20:47:17.466Z,98181.43
2018-12-06T20:49:48.067Z,98180.16
2018-12-06T20:52:18.545Z,98178.03
2018-12-06T20:54:49.055Z,98183.12
2018-12-06T20:57:19.622Z,98179.77
2018-12-06T20:59:50.109Z,98182.30
2018-12-06T21:02:20.746Z,98182.74
2018-12-06T21:04:51.197Z,98184.02
2018-12-06T21:07:21.753Z,98177.71
2018-12-06T21:09:52.308Z,98180.66
2018-12-06T21:12:22.812Z,98176.46
2018-12-06T21:14:53.261Z,98178.16
2018-12-06T21:17:23.701Z,98179.02
2018-12-06T21:19:54.202Z,98176.54
2018-12-06T21:22:24.907Z,98174.79
2018-12-06T21:24:55.402Z,98175.20
2018-12-06T21:27:25.843Z,98181.95
2018-12-06T21:29:56.390Z,98186.63
2018-12-06T21:32:26.864Z,98181.95
2018-12-06T21:34:57.317Z,98175.20
2018-12-06T21:37:27.834Z,98180.28
2018-12-06T21:40:00.385Z,98180.27
2018-12-06T21:42:31.008Z,98177.32
2018-12-06T21:45:01.471Z,98178.61
2018-12-06T21:47:31.988Z,98185.34
2018-12-06T21:50:02.398Z,98179.87
2018-12-06T21:52:32.912Z,98178.61
2018-12-06T21:55:03.345Z,98192.11
2018-12-06T21:57:33.944Z,98186.66
2018-12-06T22:00:04.785Z,98187.45
2018-12-06T22:02:35.480Z,98182.86
2018-12-06T22:05:06.267Z,98182.81
2018-12-06T22:07:36.795Z,98182.03
2018-12-06T22:10:08.601Z,98173.19
2018-12-06T22:12:39.130Z,98179.48
2018-12-06T22:15:09.611Z,98165.59
2018-12-06T22:17:40.119Z,98166.42
2018-12-06T22:20:10.545Z,98163.47
2018-12-06T22:22:41.254Z,98155.06
2018-12-06T22:25:11.744Z,98159.70
2018-12-06T22:27:42.245Z,98171.55
2018-12-06T22:30:12.708Z,98159.73
2018-12-06T22:32:43.179Z,98162.70
2018-12-06T22:35:13.625Z,98161.86
2018-12-06T22:37:44.184Z,98160.62
2018-12-06T22:40:14.766Z,98160.18
2018-12-06T22:42:45.433Z,98162.72
2018-12-06T22:46:24.586Z,98158.09
2018-12-06T22:48:55.134Z,98131.17
2018-12-06T22:51:25.668Z,98155.55
2018-12-06T22:53:56.113Z,98158.48
2018-12-06T22:56:26.537Z,98156.83
2018-12-06T22:58:57.093Z,98158.49
2018-12-06T23:01:32.492Z,98158.09
2018-12-06T23:04:03.094Z,98145.05
2018-12-06T23:06:33.572Z,98139.55
2018-12-06T23:09:06.161Z,98139.95
2018-12-06T23:11:39.646Z,98145.44
2018-12-06T23:14:10.185Z,98140.39
2018-12-06T23:16:40.772Z,98140.39
2018-12-06T23:19:11.281Z,98141.64
2018-12-06T23:21:41.723Z,98140.77
2018-12-06T23:24:13.753Z,98143.30
2018-12-06T23:26:45.557Z,98138.22
2018-12-06T23:29:16.055Z,98135.30
2018-12-06T23:31:46.562Z,98144.14
2018-12-06T23:34:17.072Z,98134.04
2018-12-06T23:36:47.526Z,98141.61
2018-12-06T23:39:18.045Z,98142.45
2018-12-06T23:41:48.531Z,98133.61
2018-12-06T23:44:19.249Z,98137.78
2018-12-06T23:46:49.756Z,98137.78
2018-12-06T23:49:20.198Z,98133.61
2018-12-06T23:51:50.878Z,98131.53
2018-12-06T23:54:21.374Z,98126.94
2018-12-06T23:56:51.804Z,98125.64
2018-12-06T23:59:22.333Z,98123.12
